Time;durP1;ratioP1;P1;durP2;ratioP2;P2;SDS_P1;SDS_P2;PMS_P1;PMS_P2;Temp;Humidity;BMP_temperature;BMP_pressure;BME280_temperature;BME280_humidity;BME280_pressure;Samples;Min_cycle;Max_cycle;Signal;HPM_P1;HPM_P2
2024/01/21 00:02:13;;;;;;;12.25;5.20;;;0.80;99.90;;;;;;5063175;28;20017;-68
2024/01/21 00:04:39;;;;;;;10.68;4.80;;;0.80;99.90;;;;;;5062735;28;20048;-69
2024/01/21 00:07:04;;;;;;;16.45;5.22;;;0.80;99.90;;;;;;5062720;28;20021;-69
2024/01/21 00:09:30;;;;;;;10.05;5.07;;;0.80;99.90;;;;;;5063065;28;20048;-68
2024/01/21 00:11:55;;;;;;;13.05;5.20;;;0.80;99.90;;;;;;5062776;28;20059;-68
2024/01/21 00:14:21;;;;;;;9.50;4.60;;;0.80;99.90;;;;;;5059937;28;20089;-69
2024/01/21 00:16:47;;;;;;;12.40;4.47;;;0.80;99.90;;;;;;5063053;28;20044;-70
2024/01/21 00:19:12;;;;;;;10.63;5.13;;;0.90;99.90;;;;;;5063005;28;20027;-69
2024/01/21 00:21:38;;;;;;;8.77;4.43;;;0.90;99.90;;;;;;5060905;28;20033;-69
2024/01/21 00:24:04;;;;;;;12.45;4.88;;;0.90;99.90;;;;;;5061938;28;20099;-69
2024/01/21 00:26:30;;;;;;;11.27;4.38;;;0.90;99.90;;;;;;5061296;28;20043;-69
2024/01/21 00:29:00;;;;;;;8.05;4.13;;;0.90;99.90;;;;;;5062592;28;20037;-68
2024/01/21 00:31:29;;;;;;;12.57;4.63;;;0.90;99.90;;;;;;5062628;28;20108;-69
2024/01/21 00:33:54;;;;;;;8.10;4.30;;;0.90;99.90;;;;;;5061944;28;20046;-69
2024/01/21 00:36:20;;;;;;;10.07;4.32;;;0.90;99.90;;;;;;5062471;28;20041;-70
2024/01/21 00:38:45;;;;;;;10.52;4.47;;;1.00;99.90;;;;;;5062647;28;20021;-69
2024/01/21 00:41:15;;;;;;;9.85;4.57;;;1.00;99.90;;;;;;5062511;28;20052;-70
2024/01/21 00:43:41;;;;;;;11.45;4.55;;;1.00;99.90;;;;;;5060952;28;20021;-69
2024/01/21 00:46:07;;;;;;;12.15;5.28;;;1.10;99.90;;;;;;5062286;28;20033;-69
2024/01/21 00:48:33;;;;;;;10.55;4.90;;;1.10;99.90;;;;;;5060850;28;20060;-69
2024/01/21 00:50:59;;;;;;;11.38;4.97;;;1.10;99.90;;;;;;5062283;28;20017;-69
2024/01/21 00:53:24;;;;;;;8.65;4.57;;;1.10;99.90;;;;;;5061027;28;20041;-69
2024/01/21 00:55:50;;;;;;;10.25;4.90;;;1.10;99.90;;;;;;5061875;28;20025;-69
2024/01/21 00:58:16;;;;;;;11.48;4.85;;;1.00;99.90;;;;;;5062391;28;20025;-69
2024/01/21 01:00:41;;;;;;;9.80;4.65;;;1.00;99.90;;;;;;5062192;28;20535;-69
2024/01/21 01:03:07;;;;;;;12.15;5.13;;;1.00;99.90;;;;;;5062112;28;20534;-69
2024/01/21 01:05:32;;;;;;;12.45;5.25;;;1.00;99.90;;;;;;5060747;28;20045;-69
2024/01/21 01:07:58;;;;;;;12.88;4.75;;;0.90;99.90;;;;;;5061862;28;20029;-68
2024/01/21 01:10:24;;;;;;;10.57;4.50;;;0.90;99.90;;;;;;5061996;28;20580;-69
2024/01/21 01:12:49;;;;;;;9.60;4.93;;;0.90;99.90;;;;;;5062363;28;20078;-69
2024/01/21 01:15:15;;;;;;;9.98;4.25;;;0.90;99.90;;;;;;5060792;28;20402;-70
2024/01/21 01:17:40;;;;;;;10.50;5.25;;;0.90;99.90;;;;;;5062257;28;20037;-69
2024/01/21 01:20:07;;;;;;;12.25;4.85;;;0.80;99.90;;;;;;5062276;28;20059;-69
2024/01/21 01:22:32;;;;;;;10.48;5.05;;;0.80;99.90;;;;;;5061424;28;20032;-70
2024/01/21 01:24:58;;;;;;;9.80;4.88;;;0.80;99.90;;;;;;5061783;28;20021;-70
2024/01/21 01:27:24;;;;;;;10.48;4.85;;;0.70;99.90;;;;;;5062313;28;20394;-70
2024/01/21 01:29:51;;;;;;;12.48;4.82;;;0.70;99.90;;;;;;5061668;28;20033;-68
2024/01/21 01:32:16;;;;;;;10.70;4.82;;;0.60;99.90;;;;;;5061107;28;20699;-69
2024/01/21 01:34:42;;;;;;;10.23;4.40;;;0.60;99.90;;;;;;5061849;28;20033;-70
2024/01/21 01:37:09;;;;;;;10.55;4.60;;;0.60;99.90;;;;;;5061361;28;20029;-69
2024/01/21 01:39:35;;;;;;;11.15;5.30;;;0.60;99.90;;;;;;5061339;28;20013;-69
2024/01/21 01:42:01;;;;;;;11.77;4.97;;;0.60;99.90;;;;;;5061069;28;20040;-69
2024/01/21 01:44:26;;;;;;;12.23;4.68;;;0.60;99.90;;;;;;5060556;28;20025;-69
2024/01/21 01:46:58;;;;;;;9.95;4.78;;;0.60;99.90;;;;;;5060674;28;20036;-69
2024/01/21 01:49:23;;;;;;;10.00;4.43;;;0.60;99.90;;;;;;5060835;28;20051;-70
2024/01/21 01:51:49;;;;;;;10.55;5.03;;;0.60;99.90;;;;;;5060926;28;20017;-70
2024/01/21 01:54:20;;;;;;;9.68;4.45;;;0.60;99.90;;;;;;5061115;28;20021;-70
2024/01/21 01:56:46;;;;;;;10.68;4.88;;;0.60;99.90;;;;;;5061123;28;20049;-70
2024/01/21 01:59:12;;;;;;;8.70;4.60;;;0.70;99.90;;;;;;5059784;28;20036;-70
2024/01/21 02:01:38;;;;;;;8.43;4.28;;;0.70;99.90;;;;;;5061111;28;20075;-70
2024/01/21 02:04:06;;;;;;;9.93;4.00;;;0.70;99.90;;;;;;5064029;28;20402;-70
2024/01/21 02:06:32;;;;;;;11.07;4.65;;;0.70;99.90;;;;;;5065094;28;20021;-69
2024/01/21 02:08:58;;;;;;;9.38;4.35;;;0.80;99.90;;;;;;5064719;28;20444;-69
2024/01/21 02:11:23;;;;;;;11.18;4.28;;;0.80;99.90;;;;;;5063888;28;20035;-69
2024/01/21 02:13:49;;;;;;;9.45;4.55;;;0.80;99.90;;;;;;5064785;28;20085;-69
2024/01/21 02:16:15;;;;;;;10.23;4.35;;;0.80;99.90;;;;;;5065463;28;20021;-70
2024/01/21 02:18:44;;;;;;;10.20;4.63;;;0.90;99.90;;;;;;5062742;28;20079;-69
2024/01/21 02:21:10;;;;;;;11.50;4.43;;;0.90;99.90;;;;;;5063426;28;20028;-69
2024/01/21 02:23:36;;;;;;;9.20;3.78;;;0.90;99.90;;;;;;5065049;28;20076;-70
2024/01/21 02:26:01;;;;;;;10.65;4.10;;;0.90;99.90;;;;;;5064701;28;20025;-69
2024/01/21 02:28:27;;;;;;;7.78;3.80;;;0.90;99.90;;;;;;5064768;28;20044;-69
2024/01/21 02:30:52;;;;;;;7.72;3.78;;;0.90;99.90;;;;;;5064850;28;20028;-69
2024/01/21 02:33:18;;;;;;;9.00;4.28;;;1.00;99.90;;;;;;5063973;28;20056;-69
2024/01/21 02:35:44;;;;;;;9.98;3.95;;;1.00;99.90;;;;;;5064906;28;20028;-69
2024/01/21 02:38:09;;;;;;;8.35;4.10;;;1.00;99.90;;;;;;5064861;28;20040;-69
2024/01/21 02:40:37;;;;;;;5.47;3.15;;;1.00;99.90;;;;;;5064576;28;20025;-69
2024/01/21 02:43:07;;;;;;;10.00;4.00;;;1.00;99.90;;;;;;5064284;28;20035;-69
2024/01/21 02:45:33;;;;;;;8.10;3.55;;;1.00;99.90;;;;;;5064631;28;20378;-70
2024/01/21 02:47:59;;;;;;;7.35;3.20;;;1.00;99.90;;;;;;5064209;28;20088;-69
2024/01/21 02:50:24;;;;;;;11.15;3.70;;;1.00;99.90;;;;;;5063281;28;20056;-68
2024/01/21 02:52:50;;;;;;;7.30;3.40;;;1.00;99.90;;;;;;5062445;28;20033;-70
2024/01/21 02:55:15;;;;;;;6.85;2.97;;;1.00;99.90;;;;;;5063747;28;20033;-70
2024/01/21 02:57:41;;;;;;;8.00;3.60;;;1.10;99.90;;;;;;5063437;28;20025;-69
2024/01/21 03:00:07;;;;;;;7.13;3.30;;;1.10;99.90;;;;;;5064263;28;20033;-70
2024/01/21 03:02:33;;;;;;;8.98;3.58;;;1.10;99.90;;;;;;5063117;28;20428;-69
2024/01/21 03:04:59;;;;;;;6.75;3.40;;;1.10;99.90;;;;;;5063938;28;20049;-70
2024/01/21 03:07:25;;;;;;;7.93;3.28;;;1.10;99.90;;;;;;5064146;28;20549;-70
2024/01/21 03:09:50;;;;;;;9.50;3.72;;;1.20;99.90;;;;;;5063534;28;20175;-69
2024/01/21 03:12:16;;;;;;;12.82;3.55;;;1.10;99.90;;;;;;5064016;28;20032;-70
2024/01/21 03:14:41;;;;;;;7.90;3.70;;;1.20;99.90;;;;;;5064169;28;20024;-69
2024/01/21 03:17:08;;;;;;;8.82;4.00;;;1.20;99.90;;;;;;5062177;28;20131;-70
2024/01/21 03:19:33;;;;;;;8.43;4.00;;;1.20;99.90;;;;;;5062850;28;20031;-69
2024/01/21 03:21:59;;;;;;;8.75;3.78;;;1.20;99.90;;;;;;5063732;28;20493;-69
2024/01/21 03:24:24;;;;;;;8.38;3.42;;;1.20;99.90;;;;;;5062295;28;20021;-68
2024/01/21 03:26:50;;;;;;;8.40;3.60;;;1.20;99.90;;;;;;5063815;28;20036;-69
2024/01/21 03:29:16;;;;;;;10.63;4.25;;;1.20;99.90;;;;;;5063683;28;20058;-69
2024/01/21 03:31:42;;;;;;;8.48;3.72;;;1.20;99.90;;;;;;5063920;28;20039;-69
2024/01/21 03:34:07;;;;;;;8.38;3.60;;;1.20;99.90;;;;;;5063937;28;20029;-69
2024/01/21 03:36:33;;;;;;;8.68;3.45;;;1.20;99.90;;;;;;5062792;28;20040;-69
2024/01/21 03:38:58;;;;;;;10.90;4.40;;;1.20;99.90;;;;;;5063674;28;20035;-69
2024/01/21 03:41:24;;;;;;;10.32;4.40;;;1.30;99.90;;;;;;5063429;28;20025;-69
2024/01/21 03:43:50;;;;;;;10.02;4.05;;;1.30;99.90;;;;;;5061199;28;20033;-68
2024/01/21 03:46:15;;;;;;;13.20;4.50;;;1.30;99.90;;;;;;5061132;28;20044;-69
2024/01/21 03:48:41;;;;;;;12.23;4.80;;;1.30;99.90;;;;;;5063340;28;20564;-69
2024/01/21 03:51:10;;;;;;;13.10;5.05;;;1.30;99.90;;;;;;5063401;28;20025;-69
2024/01/21 03:53:36;;;;;;;11.68;5.32;;;1.30;99.90;;;;;;5063156;28;20029;-68
2024/01/21 03:56:02;;;;;;;12.00;5.00;;;1.20;99.90;;;;;;5062910;28;20025;-68
2024/01/21 03:58:28;;;;;;;12.82;5.28;;;1.30;99.90;;;;;;5063443;28;20037;-69
2024/01/21 04:00:53;;;;;;;12.10;4.35;;;1.20;99.90;;;;;;5061626;28;20036;-69
2024/01/21 04:03:19;;;;;;;12.38;4.78;;;1.20;99.90;;;;;;5062290;28;20040;-70
2024/01/21 04:05:45;;;;;;;12.45;5.03;;;1.20;99.90;;;;;;5062768;28;20041;-69
2024/01/21 04:08:10;;;;;;;13.30;5.40;;;1.20;99.90;;;;;;5063160;28;20659;-68
2024/01/21 04:10:37;;;;;;;11.15;4.45;;;1.20;99.90;;;;;;5062694;28;20088;-69
2024/01/21 04:13:02;;;;;;;13.40;5.90;;;1.20;99.90;;;;;;5062965;28;20036;-69
2024/01/21 04:15:28;;;;;;;15.50;5.55;;;1.20;99.90;;;;;;5062702;28;20025;-69
2024/01/21 04:17:54;;;;;;;13.35;5.70;;;1.20;99.90;;;;;;5062776;28;20401;-69
2024/01/21 04:20:19;;;;;;;12.13;5.40;;;1.20;99.90;;;;;;5063004;28;20028;-68
2024/01/21 04:22:45;;;;;;;15.02;5.63;;;1.20;99.90;;;;;;5062831;28;20029;-69
2024/01/21 04:25:10;;;;;;;11.77;5.35;;;1.20;99.90;;;;;;5062222;28;20021;-69
2024/01/21 04:27:36;;;;;;;14.35;6.13;;;1.20;99.90;;;;;;5062883;28;20029;-69
2024/01/21 04:30:01;;;;;;;16.75;6.15;;;1.10;99.90;;;;;;5062446;28;20689;-69
2024/01/21 04:32:27;;;;;;;14.40;6.00;;;1.20;99.90;;;;;;5062599;28;20382;-69
2024/01/21 04:34:53;;;;;;;12.75;5.13;;;1.20;99.90;;;;;;5062843;28;20060;-69
2024/01/21 04:37:18;;;;;;;18.35;6.82;;;1.20;99.90;;;;;;5062581;28;20033;-69
2024/01/21 04:39:44;;;;;;;15.20;6.22;;;1.10;99.90;;;;;;5062782;28;20036;-70
2024/01/21 04:42:10;;;;;;;14.93;6.32;;;1.20;99.90;;;;;;5062793;28;20028;-69
2024/01/21 04:44:35;;;;;;;14.20;6.00;;;1.10;99.90;;;;;;5060852;28;20033;-69
2024/01/21 04:47:01;;;;;;;16.02;6.35;;;1.10;99.90;;;;;;5060850;28;20017;-70
2024/01/21 04:49:26;;;;;;;14.68;5.72;;;1.10;99.90;;;;;;5062425;28;20037;-68
2024/01/21 04:51:52;;;;;;;15.93;6.53;;;1.10;99.90;;;;;;5060934;28;20033;-70
2024/01/21 04:54:17;;;;;;;16.10;5.28;;;1.00;99.90;;;;;;5060925;28;20031;-70
2024/01/21 04:56:43;;;;;;;14.23;5.93;;;1.00;99.90;;;;;;5062389;28;20021;-67
2024/01/21 04:59:09;;;;;;;12.68;5.30;;;1.10;99.90;;;;;;5059504;28;20067;-68
2024/01/21 05:01:35;;;;;;;14.55;6.03;;;1.10;99.90;;;;;;5062207;28;20017;-68
2024/01/21 05:04:00;;;;;;;14.25;5.40;;;1.10;99.90;;;;;;5060511;28;20069;-69
2024/01/21 05:06:26;;;;;;;16.63;5.95;;;1.00;99.90;;;;;;5062036;28;20024;-68
2024/01/21 05:08:52;;;;;;;12.02;5.15;;;1.00;99.90;;;;;;5059362;28;20100;-68
2024/01/21 05:11:17;;;;;;;13.20;6.10;;;1.10;99.90;;;;;;5062218;28;20025;-67
2024/01/21 05:13:43;;;;;;;16.13;6.18;;;1.00;99.90;;;;;;5061911;28;20025;-68
2024/01/21 05:16:08;;;;;;;13.40;5.72;;;1.00;99.90;;;;;;5062465;28;20025;-68
2024/01/21 05:18:37;;;;;;;18.02;6.60;;;1.00;99.90;;;;;;5060162;28;20033;-68
2024/01/21 05:21:02;;;;;;;15.75;5.60;;;1.00;99.90;;;;;;5061617;28;20083;-69
2024/01/21 05:23:28;;;;;;;13.90;5.00;;;1.00;99.90;;;;;;5062035;28;20025;-69
2024/01/21 05:25:54;;;;;;;13.95;6.05;;;1.00;99.90;;;;;;5062061;28;20021;-68
2024/01/21 05:28:20;;;;;;;13.65;5.35;;;1.00;99.90;;;;;;5061761;28;20022;-69
2024/01/21 05:30:46;;;;;;;11.13;4.95;;;1.00;99.90;;;;;;5060845;28;20040;-68
2024/01/21 05:33:11;;;;;;;12.85;5.78;;;1.00;99.90;;;;;;5062032;28;20025;-68
2024/01/21 05:35:37;;;;;;;12.60;5.05;;;1.10;99.90;;;;;;5061827;28;20550;-67
2024/01/21 05:38:02;;;;;;;12.32;5.10;;;1.00;99.90;;;;;;5063268;28;20691;-67
2024/01/21 05:40:28;;;;;;;10.98;4.05;;;1.10;99.90;;;;;;5065552;28;20040;-68
2024/01/21 05:42:54;;;;;;;14.20;5.47;;;1.10;99.90;;;;;;5064224;28;20060;-67
2024/01/21 05:45:20;;;;;;;14.02;5.80;;;1.10;99.90;;;;;;5065830;28;20029;-68
2024/01/21 05:47:45;;;;;;;14.88;5.25;;;1.10;99.90;;;;;;5064359;28;20025;-68
2024/01/21 05:50:11;;;;;;;12.00;5.53;;;1.10;99.90;;;;;;5065665;28;20100;-68
2024/01/21 05:52:37;;;;;;;11.07;5.05;;;1.10;99.90;;;;;;5065816;28;20044;-67
2024/01/21 05:55:04;;;;;;;14.07;4.88;;;1.20;99.90;;;;;;5062810;28;20021;-68
2024/01/21 05:57:29;;;;;;;13.20;4.70;;;1.10;99.90;;;;;;5065586;28;20486;-67
2024/01/21 05:59:55;;;;;;;12.50;4.93;;;1.20;99.90;;;;;;5065477;28;20040;-67
2024/01/21 06:02:21;;;;;;;13.55;4.78;;;1.20;99.90;;;;;;5065387;28;20048;-67
2024/01/21 06:04:47;;;;;;;11.73;4.88;;;1.20;99.90;;;;;;5064089;28;20063;-69
2024/01/21 06:07:13;;;;;;;13.73;5.40;;;1.20;99.90;;;;;;5062756;28;20033;-67
2024/01/21 06:09:38;;;;;;;10.90;4.15;;;1.20;99.90;;;;;;5060563;28;20040;-67
2024/01/21 06:12:04;;;;;;;12.75;5.30;;;1.30;99.90;;;;;;5064847;28;20025;-69
2024/01/21 06:14:30;;;;;;;11.55;5.15;;;1.30;99.90;;;;;;5065300;28;20029;-68
2024/01/21 06:16:55;;;;;;;11.48;4.90;;;1.30;99.90;;;;;;5062683;28;20028;-67
2024/01/21 06:19:21;;;;;;;11.98;5.18;;;1.30;99.90;;;;;;5065303;28;20096;-68
2024/01/21 06:21:47;;;;;;;15.93;5.72;;;1.30;99.90;;;;;;5064781;28;20024;-68
2024/01/21 06:24:13;;;;;;;11.75;5.00;;;1.30;99.90;;;;;;5061622;28;20048;-67
2024/01/21 06:26:40;;;;;;;12.70;4.50;;;1.30;99.90;;;;;;5064124;28;20429;-67
2024/01/21 06:29:06;;;;;;;15.23;5.75;;;1.30;99.90;;;;;;5061327;28;20083;-67
2024/01/21 06:31:32;;;;;;;11.88;5.38;;;1.40;99.90;;;;;;5063079;28;20021;-67
2024/01/21 06:33:58;;;;;;;12.30;4.63;;;1.40;99.90;;;;;;5063516;28;20025;-66
2024/01/21 06:36:23;;;;;;;11.73;5.50;;;1.40;99.90;;;;;;5064772;28;20025;-67
2024/01/21 06:38:49;;;;;;;15.55;5.53;;;1.40;99.90;;;;;;5061890;28;20067;-68
2024/01/21 06:41:15;;;;;;;14.15;5.65;;;1.40;99.90;;;;;;5062271;28;20032;-67
2024/01/21 06:43:41;;;;;;;12.15;5.07;;;1.50;99.90;;;;;;5064667;28;20040;-67
2024/01/21 06:46:08;;;;;;;12.38;5.00;;;1.50;99.90;;;;;;5064327;28;20025;-68
2024/01/21 06:48:34;;;;;;;13.15;5.05;;;1.50;99.90;;;;;;5064289;28;20470;-68
2024/01/21 06:51:04;;;;;;;11.27;4.72;;;1.50;99.90;;;;;;5062435;28;20032;-68
2024/01/21 06:53:30;;;;;;;12.73;5.57;;;1.50;99.90;;;;;;5062176;28;20055;-67
2024/01/21 06:55:55;;;;;;;10.15;4.53;;;1.50;99.90;;;;;;5061458;28;20025;-66
2024/01/21 06:58:21;;;;;;;12.95;5.43;;;1.60;99.90;;;;;;5064288;28;20036;-67
2024/01/21 07:00:51;;;;;;;12.25;5.07;;;1.60;99.90;;;;;;5064188;28;20127;-67
2024/01/21 07:03:17;;;;;;;12.02;5.32;;;1.60;99.90;;;;;;5063113;28;20021;-68
2024/01/21 07:05:43;;;;;;;11.65;5.07;;;1.60;99.90;;;;;;5062560;28;20055;-67
2024/01/21 07:08:08;;;;;;;14.82;5.25;;;1.60;99.90;;;;;;5062240;28;20025;-68
2024/01/21 07:10:34;;;;;;;12.50;4.97;;;1.60;99.90;;;;;;5061986;28;20076;-67
2024/01/21 07:13:00;;;;;;;10.23;4.53;;;1.60;99.90;;;;;;5063107;28;20108;-67
2024/01/21 07:15:25;;;;;;;13.18;4.95;;;1.70;99.90;;;;;;5061621;28;20496;-68
2024/01/21 07:17:51;;;;;;;11.73;4.05;;;1.60;99.90;;;;;;5061728;28;20021;-67
2024/01/21 07:20:17;;;;;;;11.07;4.50;;;1.60;99.90;;;;;;5063593;28;20017;-67
2024/01/21 07:22:42;;;;;;;12.75;5.07;;;1.60;99.90;;;;;;5063562;28;20064;-67
2024/01/21 07:25:08;;;;;;;11.50;5.53;;;1.70;99.90;;;;;;5062095;28;20029;-66
2024/01/21 07:27:34;;;;;;;10.60;3.58;;;1.70;99.90;;;;;;5062662;28;20089;-68
2024/01/21 07:30:00;;;;;;;11.73;5.40;;;1.70;99.90;;;;;;5061056;28;20068;-67
2024/01/21 07:32:26;;;;;;;10.45;4.55;;;1.60;99.90;;;;;;5051744;28;20039;-68
2024/01/21 07:34:51;;;;;;;15.10;4.07;;;1.60;99.90;;;;;;5057375;28;20363;-69
2024/01/21 07:37:17;;;;;;;9.10;4.15;;;1.60;99.90;;;;;;5062412;28;20021;-68
2024/01/21 07:39:43;;;;;;;10.88;4.28;;;1.60;99.90;;;;;;5060922;28;20029;-67
2024/01/21 07:42:08;;;;;;;10.63;4.20;;;1.60;99.90;;;;;;5060796;28;20035;-67
2024/01/21 07:44:34;;;;;;;9.85;4.18;;;1.60;99.90;;;;;;5056640;28;20037;-67
2024/01/21 07:46:59;;;;;;;12.68;4.53;;;1.60;99.90;;;;;;5057131;28;20029;-67
2024/01/21 07:49:25;;;;;;;13.82;5.13;;;1.60;99.90;;;;;;5055848;28;20120;-66
2024/01/21 07:51:51;;;;;;;10.65;4.32;;;1.60;99.90;;;;;;5060037;28;20052;-66
2024/01/21 07:54:17;;;;;;;8.32;3.72;;;1.60;99.90;;;;;;5061520;28;20024;-67
2024/01/21 07:56:42;;;;;;;11.38;5.07;;;1.60;99.90;;;;;;5058737;28;20029;-67
2024/01/21 07:59:08;;;;;;;11.05;4.50;;;1.60;99.90;;;;;;5061520;28;20075;-67
2024/01/21 08:01:33;;;;;;;14.85;4.90;;;1.70;99.90;;;;;;5060614;28;20071;-67
2024/01/21 08:03:59;;;;;;;11.18;4.75;;;1.70;99.90;;;;;;5060194;28;20394;-66
2024/01/21 08:06:24;;;;;;;10.93;4.90;;;1.70;99.90;;;;;;5059835;28;20033;-67
2024/01/21 08:08:50;;;;;;;12.25;4.50;;;1.70;99.90;;;;;;5062503;28;20036;-67
2024/01/21 08:11:16;;;;;;;10.00;3.97;;;1.80;99.90;;;;;;5060427;28;20028;-66
2024/01/21 08:13:42;;;;;;;10.65;4.32;;;1.80;99.90;;;;;;5060940;28;20053;-67
2024/01/21 08:16:07;;;;;;;11.50;4.00;;;1.80;99.90;;;;;;5059818;28;20086;-67
2024/01/21 08:18:34;;;;;;;9.45;4.03;;;1.90;99.90;;;;;;5061670;28;20037;-66
2024/01/21 08:21:00;;;;;;;10.73;3.17;;;1.90;99.90;;;;;;5058989;28;20029;-68
2024/01/21 08:23:26;;;;;;;8.10;3.22;;;2.00;99.90;;;;;;5059814;28;20021;-67
2024/01/21 08:25:51;;;;;;;8.07;3.13;;;2.00;99.90;;;;;;5062654;28;20025;-67
2024/01/21 08:28:17;;;;;;;6.43;3.00;;;2.10;99.90;;;;;;5062664;28;20021;-66
2024/01/21 08:30:43;;;;;;;7.43;3.35;;;2.10;99.90;;;;;;5061311;28;20040;-69
2024/01/21 08:33:09;;;;;;;6.32;2.50;;;2.20;99.90;;;;;;5061323;28;20029;-67
2024/01/21 08:35:36;;;;;;;6.90;3.47;;;2.30;99.90;;;;;;5058836;28;20057;-68
2024/01/21 08:38:02;;;;;;;7.25;2.72;;;2.30;99.90;;;;;;5060715;28;20037;-69
2024/01/21 08:40:27;;;;;;;8.15;3.17;;;2.30;99.90;;;;;;5060400;28;20036;-67
2024/01/21 08:42:53;;;;;;;7.00;3.00;;;2.40;99.90;;;;;;5059941;28;20560;-67
2024/01/21 08:45:18;;;;;;;5.90;2.25;;;2.40;99.90;;;;;;5062217;28;20462;-67
2024/01/21 08:47:44;;;;;;;9.20;2.95;;;2.50;99.90;;;;;;5062410;28;20021;-67
2024/01/21 08:50:10;;;;;;;5.18;2.65;;;2.50;99.90;;;;;;5062385;28;20039;-67
2024/01/21 08:52:36;;;;;;;7.03;3.17;;;2.50;99.90;;;;;;5061708;28;20026;-67
2024/01/21 08:55:01;;;;;;;6.78;2.45;;;2.60;99.90;;;;;;5061426;28;20040;-70
2024/01/21 08:57:27;;;;;;;5.97;2.30;;;2.70;99.90;;;;;;5056779;28;20040;-66
2024/01/21 08:59:53;;;;;;;6.25;2.60;;;2.70;99.90;;;;;;5058293;28;20342;-69
2024/01/21 09:02:19;;;;;;;7.28;2.92;;;2.70;99.90;;;;;;5055464;28;20413;-68
2024/01/21 09:04:45;;;;;;;6.63;3.20;;;2.70;99.90;;;;;;5055587;28;20050;-67
2024/01/21 09:07:11;;;;;;;4.22;2.10;;;2.80;99.90;;;;;;5055728;28;20089;-68
2024/01/21 09:09:36;;;;;;;5.47;2.83;;;2.80;99.90;;;;;;5060356;28;20048;-67
2024/01/21 09:12:02;;;;;;;8.35;3.10;;;2.90;99.90;;;;;;5062773;28;20047;-68
2024/01/21 09:14:27;;;;;;;7.15;2.85;;;2.90;99.90;;;;;;5067144;28;20047;-67
2024/01/21 09:16:53;;;;;;;5.88;2.85;;;3.00;99.90;;;;;;5064436;28;20535;-67
2024/01/21 09:19:19;;;;;;;6.30;2.60;;;3.00;99.90;;;;;;5066686;28;20029;-68
2024/01/21 09:21:44;;;;;;;7.85;3.47;;;3.00;99.90;;;;;;5064841;28;20078;-70
2024/01/21 09:24:11;;;;;;;9.40;3.25;;;3.10;99.90;;;;;;5055347;28;20045;-69
2024/01/21 09:26:37;;;;;;;5.60;2.75;;;3.10;99.90;;;;;;5067259;28;20028;-68
2024/01/21 09:29:03;;;;;;;7.15;2.65;;;3.20;99.90;;;;;;5065838;28;20037;-68
2024/01/21 09:31:29;;;;;;;7.30;3.10;;;3.20;99.90;;;;;;5061077;28;20033;-66
2024/01/21 09:33:56;;;;;;;4.95;2.67;;;3.20;99.90;;;;;;5065587;28;20025;-69
2024/01/21 09:36:23;;;;;;;6.78;2.35;;;3.30;99.90;;;;;;5065134;28;20428;-68
2024/01/21 09:38:50;;;;;;;5.60;2.60;;;3.30;99.90;;;;;;5061643;28;20013;-68
2024/01/21 09:41:22;;;;;;;14.23;2.95;;;3.30;99.90;;;;;;5068042;28;20017;-68
2024/01/21 09:43:47;;;;;;;9.25;3.13;;;3.40;99.90;;;;;;5064814;28;20040;-67
2024/01/21 09:46:13;;;;;;;7.75;2.63;;;3.40;99.90;;;;;;5068334;28;20139;-69
2024/01/21 09:48:39;;;;;;;7.85;3.22;;;3.50;99.90;;;;;;5067813;28;20537;-68
2024/01/21 09:51:08;;;;;;;5.35;2.60;;;3.50;99.90;;;;;;5068365;28;20047;-68
2024/01/21 09:53:34;;;;;;;10.10;2.70;;;3.60;99.90;;;;;;5065721;28;20035;-68
2024/01/21 09:56:07;;;;;;;12.75;3.17;;;3.60;99.90;;;;;;5062756;28;20041;-68
2024/01/21 09:58:52;;;;;;;5.82;3.17;;;3.70;99.90;;;;;;5064974;28;20025;-67
2024/01/21 10:01:19;;;;;;;7.25;3.40;;;3.80;99.90;;;;;;5066031;28;20078;-67
2024/01/21 10:03:45;;;;;;;6.22;3.38;;;3.80;99.90;;;;;;5064209;28;20021;-68
2024/01/21 10:06:11;;;;;;;8.43;3.28;;;3.80;99.90;;;;;;5068057;28;20032;-68
2024/01/21 10:08:39;;;;;;;7.00;3.10;;;3.80;99.90;;;;;;5068496;28;20025;-67
2024/01/21 10:11:05;;;;;;;5.13;2.70;;;3.80;99.90;;;;;;5067623;28;20596;-67
2024/01/21 10:13:31;;;;;;;6.50;2.95;;;3.90;99.90;;;;;;5065066;28;20029;-68
2024/01/21 10:15:58;;;;;;;9.95;3.22;;;4.00;99.90;;;;;;5068261;28;20062;-68
2024/01/21 10:18:25;;;;;;;5.60;2.58;;;4.10;99.90;;;;;;5068116;28;20021;-68
2024/01/21 10:20:51;;;;;;;7.97;3.80;;;4.20;99.90;;;;;;5064604;28;20025;-68
2024/01/21 10:23:17;;;;;;;7.97;3.85;;;4.30;99.90;;;;;;5059205;28;20037;-67
2024/01/21 10:25:43;;;;;;;11.52;4.32;;;4.40;99.90;;;;;;5048961;28;20051;-67
2024/01/21 10:28:11;;;;;;;6.90;3.05;;;4.50;99.90;;;;;;5058201;28;20064;-67
2024/01/21 10:30:38;;;;;;;9.45;3.90;;;4.60;99.90;;;;;;5063661;28;20093;-68
2024/01/21 10:33:04;;;;;;;11.05;3.22;;;4.60;99.90;;;;;;5061274;28;20057;-68
2024/01/21 10:35:29;;;;;;;7.60;3.58;;;4.60;99.90;;;;;;5060288;28;20025;-68
2024/01/21 10:37:55;;;;;;;7.20;3.17;;;4.60;99.90;;;;;;5058316;28;20218;-68
2024/01/21 10:40:20;;;;;;;6.47;3.50;;;4.70;99.90;;;;;;5061943;28;20086;-68
2024/01/21 10:42:53;;;;;;;7.60;3.55;;;4.80;99.90;;;;;;5063088;28;20037;-68
2024/01/21 10:45:21;;;;;;;8.30;4.72;;;4.70;99.90;;;;;;5062417;28;20028;-68
2024/01/21 10:47:48;;;;;;;6.18;3.10;;;4.70;99.90;;;;;;5061077;28;20029;-68
2024/01/21 10:50:15;;;;;;;9.00;3.80;;;4.70;99.90;;;;;;5063491;28;20041;-68
2024/01/21 10:52:45;;;;;;;9.15;4.25;;;4.70;99.90;;;;;;5062380;28;20052;-67
2024/01/21 10:55:11;;;;;;;8.10;3.50;;;4.80;99.90;;;;;;5063137;28;20029;-69
2024/01/21 10:57:37;;;;;;;13.70;4.07;;;4.60;99.90;;;;;;5063189;28;20413;-68
2024/01/21 11:00:03;;;;;;;12.95;4.75;;;4.70;99.90;;;;;;5061771;28;20052;-68
2024/01/21 11:02:30;;;;;;;9.90;3.50;;;4.70;99.90;;;;;;5063648;28;20021;-67
2024/01/21 11:04:56;;;;;;;10.13;4.50;;;4.80;99.90;;;;;;5062033;28;20037;-67
2024/01/21 11:07:24;;;;;;;9.70;4.38;;;4.70;99.90;;;;;;5062969;28;20032;-68
2024/01/21 11:09:53;;;;;;;12.23;5.00;;;4.70;99.90;;;;;;5061975;28;20104;-66
2024/01/21 11:12:19;;;;;;;11.88;4.95;;;4.80;99.90;;;;;;5063476;28;20050;-67
2024/01/21 11:14:46;;;;;;;10.50;4.70;;;4.80;99.90;;;;;;5063648;28;20033;-69
2024/01/21 11:17:15;;;;;;;17.75;5.28;;;4.80;99.90;;;;;;5062344;28;20020;-68
2024/01/21 11:19:52;;;;;;;14.57;6.22;;;4.90;99.90;;;;;;5063134;28;20124;-67
2024/01/21 11:22:23;;;;;;;14.20;5.85;;;4.90;99.90;;;;;;5063487;28;20032;-68
2024/01/21 11:24:55;;;;;;;15.38;4.20;;;5.00;99.90;;;;;;5062378;28;20021;-67
2024/01/21 11:27:29;;;;;;;13.18;3.80;;;5.10;99.90;;;;;;5063546;28;20017;-69
2024/01/21 11:29:57;;;;;;;9.52;4.88;;;5.20;99.90;;;;;;5063066;28;20024;-68
2024/01/21 11:32:28;;;;;;;10.50;5.20;;;5.20;99.90;;;;;;5063020;28;20032;-69
2024/01/21 11:34:55;;;;;;;9.70;4.22;;;5.10;99.90;;;;;;5062418;28;20024;-68
2024/01/21 11:37:22;;;;;;;11.52;4.93;;;5.10;99.90;;;;;;5061251;28;20033;-69
2024/01/21 11:39:49;;;;;;;11.00;5.05;;;5.00;99.90;;;;;;5060774;28;20035;-68
2024/01/21 11:42:15;;;;;;;14.65;5.80;;;5.00;99.90;;;;;;5062031;28;20049;-68
2024/01/21 11:44:41;;;;;;;12.43;5.60;;;5.10;99.90;;;;;;5063017;28;20101;-67
2024/01/21 11:47:07;;;;;;;11.98;5.53;;;5.10;99.90;;;;;;5062161;28;20558;-68
2024/01/21 11:49:35;;;;;;;16.38;6.82;;;5.10;99.90;;;;;;5061670;28;20862;-68
2024/01/21 11:52:06;;;;;;;15.85;6.53;;;5.20;99.90;;;;;;5060819;28;20022;-68
2024/01/21 11:54:36;;;;;;;16.80;6.50;;;5.10;99.90;;;;;;5055243;28;20025;-68
2024/01/21 11:57:02;;;;;;;16.23;6.72;;;5.20;99.90;;;;;;5057750;28;20032;-69
2024/01/21 11:59:30;;;;;;;17.95;6.78;;;5.10;99.90;;;;;;5061181;28;20033;-67
2024/01/21 12:01:57;;;;;;;13.57;5.45;;;5.10;99.90;;;;;;5060146;28;20032;-69
2024/01/21 12:04:24;;;;;;;17.95;6.72;;;5.10;99.90;;;;;;5060903;28;20048;-69
2024/01/21 12:06:51;;;;;;;14.43;6.18;;;5.00;99.90;;;;;;5062708;28;20074;-69
2024/01/21 12:09:17;;;;;;;16.52;6.30;;;5.10;99.90;;;;;;5062695;28;20367;-66
2024/01/21 12:11:42;;;;;;;16.77;7.35;;;5.00;99.90;;;;;;5063072;28;20051;-67
2024/01/21 12:14:13;;;;;;;16.10;6.10;;;5.10;99.90;;;;;;5061486;28;20033;-69
2024/01/21 12:16:39;;;;;;;9.80;3.85;;;5.20;99.90;;;;;;5062248;28;20029;-67
2024/01/21 12:19:05;;;;;;;17.35;7.45;;;5.20;99.90;;;;;;5056978;28;20032;-67
2024/01/21 12:21:32;;;;;;;20.33;9.45;;;5.10;99.90;;;;;;5061807;28;20060;-67
2024/01/21 12:23:59;;;;;;;21.95;8.02;;;5.20;99.90;;;;;;5061614;28;20052;-68
2024/01/21 12:26:24;;;;;;;18.95;8.23;;;5.30;99.90;;;;;;5055443;28;20043;-67
2024/01/21 12:29:06;;;;;;;18.02;7.90;;;5.40;99.90;;;;;;5060040;28;20052;-67
2024/01/21 12:31:41;;;;;;;17.88;8.80;;;5.40;99.90;;;;;;5060032;28;20096;-67
2024/01/21 12:34:08;;;;;;;22.77;8.60;;;5.40;99.90;;;;;;5059446;28;20029;-68
2024/01/21 12:36:37;;;;;;;17.05;8.48;;;5.30;99.90;;;;;;5058606;28;20033;-66
2024/01/21 12:39:06;;;;;;;20.70;7.55;;;5.30;99.90;;;;;;5058965;28;20837;-68
2024/01/21 12:41:33;;;;;;;17.00;6.55;;;5.30;99.90;;;;;;5058392;28;20029;-67
2024/01/21 12:43:58;;;;;;;19.17;7.28;;;5.30;99.90;;;;;;5060617;28;20037;-67
2024/01/21 12:46:24;;;;;;;18.52;8.50;;;5.20;99.90;;;;;;5062144;28;20112;-67